Airfield :
LOGIN :

Register | Disclaimer

   EN    FR    IT 

 










Legend :    VFR   Marginal VFR   IFR   Intensive IFR   Very Intensive IFR
Visi :
Ceiling :
>= 8 km
>= 3000ft
5 to 8 km
1000 to 3000 ft
1500m to 5 km
500 to 1000 ft
800 to 1500m
200 to 500 ft
< 800m
< 200 ft
Symbols :   Thunderstorms  Fog  Heavy snow  Heavy precipitations  Wind > 20 kt
SIGMETs :     Misc.  Thunderstorms  Icing  Turbulence  Mountain Waves  Volcanic Ashes







- Airport Elevation : 1411 ft
- IATA code : ZHI


LSZG - Grenchen

CURRENT METAR :
  • 231350Z 24002KT 9999 BKN032 09/03 Q1027 NOSIG

EXPIRED METARs :
  • 231320Z 21003KT 9999 SCT040 09/04 Q1027 NOSIG
  • 231250Z 23004KT 9999 SCT030 SCT038 09/03 Q1027 NOSIG
  • 231220Z AUTO VRB02KT 9999 SCT033 BKN038 08/02 Q1027
  • 231150Z AUTO 21002KT 9999 OVC037 08/04 Q1028
  • 231120Z VRB01KT 9999 BKN038 07/04 Q1028 NOSIG

TAF TAF LSZG
Valid from the 23 at 12:00 until the 23 at 21:00 UTC


231125Z 2312/2321 VRB03KT 9999 SCT035
TEMPO 2312/2321 CAVOK
PROB40 2319/2321 4000 BR
ATIS : +41 32 396 96 33
No reported NOTAMs for that airfield.



MET'MAP, your aeronautical weather chart ! - Copyright ORBIFLY December 2007 - Disclaimer

ORBIFLY MET'MAP TEAM :

Programming & Development : Alexandra Zaïnal
Concept & Development : Baudouin d'Aumeries
Co-Development & Prog : Marc-Olivier Méhu
Technical & hardware support : Manuel Goepfert

Contact : metmap@orbifly.com




SOURCES & CREDITS :

   NOAA